createdAt,value
2023-01-06T00:01:47.767Z,44.15
2023-01-06T00:06:52.329Z,45.01
2023-01-06T00:11:56.997Z,46.44
2023-01-06T00:17:00.512Z,44.55
2023-01-06T00:22:06.929Z,44.01
2023-01-06T00:27:11.731Z,42.77
2023-01-06T00:32:16.329Z,42.51
2023-01-06T00:37:20.890Z,44.35
2023-01-06T00:42:26.045Z,45.44
2023-01-06T00:47:30.089Z,43.41
2023-01-06T00:52:36.609Z,44.12
2023-01-06T00:57:41.909Z,44.15
2023-01-06T01:02:49.393Z,45.36
2023-01-06T01:07:54.342Z,43.43
2023-01-06T01:12:58.952Z,43.48
2023-01-06T01:18:04.489Z,43.08
2023-01-06T01:23:08.597Z,41.18
2023-01-06T01:28:13.214Z,42.25
2023-01-06T01:33:21.029Z,42.78
2023-01-06T01:38:24.595Z,42.30
2023-01-06T01:44:04.364Z,40.47
2023-01-06T01:49:21.494Z,41.12
2023-01-06T01:54:31.164Z,40.77
2023-01-06T01:59:40.133Z,40.29
2023-01-06T02:04:49.537Z,40.14
2023-01-06T02:10:03.552Z,40.70
2023-01-06T02:15:22.237Z,40.10
2023-01-06T02:20:51.246Z,39.75
2023-01-06T02:26:20.473Z,40.17
2023-01-06T02:32:02.228Z,39.78
2023-01-06T02:37:05.929Z,41.42
2023-01-06T02:42:13.669Z,40.14
2023-01-06T02:47:17.458Z,39.65
2023-01-06T02:52:25.194Z,39.49
2023-01-06T02:57:43.127Z,39.88
2023-01-06T03:02:56.388Z,40.62
2023-01-06T03:08:02.535Z,39.46
2023-01-06T03:13:23.128Z,39.35
2023-01-06T03:18:33.936Z,39.09
2023-01-06T03:23:42.585Z,38.75
2023-01-06T03:28:49.541Z,38.55
2023-01-06T03:34:06.145Z,38.52
2023-01-06T03:39:16.160Z,38.37
2023-01-06T03:44:51.340Z,38.55
2023-01-06T03:50:08.499Z,38.36
2023-01-06T03:55:13.124Z,37.90
2023-01-06T04:00:21.661Z,31.23
2023-01-06T04:05:33.276Z,30.88
2023-01-06T04:10:39.246Z,28.29
2023-01-06T04:15:44.855Z,28.66
2023-01-06T04:20:50.496Z,28.26
2023-01-06T04:26:01.833Z,26.85
2023-01-06T04:31:16.620Z,26.27
2023-01-06T04:36:22.335Z,26.80
2023-01-06T04:41:30.382Z,25.52
2023-01-06T04:46:35.214Z,27.02
2023-01-06T04:51:40.045Z,26.17
2023-01-06T04:56:45.964Z,26.40
2023-01-06T05:01:50.396Z,24.45
2023-01-06T05:06:54.745Z,24.40
2023-01-06T05:11:58.462Z,24.49
2023-01-06T05:17:03.387Z,24.84
2023-01-06T05:22:08.183Z,24.09
2023-01-06T05:27:13.690Z,24.11
2023-01-06T05:32:17.923Z,23.76
2023-01-06T05:37:22.261Z,23.33
2023-01-06T05:42:26.993Z,24.26
2023-01-06T05:47:31.659Z,22.82
2023-01-06T05:52:36.436Z,24.07
2023-01-06T05:57:41.330Z,25.34
2023-01-06T06:02:46.353Z,22.89
2023-01-06T06:08:00.348Z,22.85
2023-01-06T06:13:05.167Z,22.74
2023-01-06T06:18:09.517Z,23.49
2023-01-06T06:23:15.137Z,22.51
2023-01-06T06:28:20.307Z,23.25
2023-01-06T06:33:27.958Z,22.90
2023-01-06T06:38:33.074Z,21.68
2023-01-06T06:43:38.046Z,23.21
2023-01-06T06:48:42.934Z,23.22
2023-01-06T06:53:47.694Z,23.00
2023-01-06T06:58:53.665Z,21.77
2023-01-06T07:03:58.874Z,22.20
2023-01-06T07:09:03.917Z,21.92
2023-01-06T07:14:08.756Z,23.57
2023-01-06T07:19:14.561Z,22.73
2023-01-06T07:24:19.388Z,22.57
2023-01-06T07:29:24.164Z,21.88
2023-01-06T07:34:29.053Z,25.06
2023-01-06T07:39:33.882Z,26.40
2023-01-06T07:44:38.220Z,24.03
2023-01-06T07:49:43.126Z,25.78
2023-01-06T07:54:48.030Z,22.64
2023-01-06T07:59:52.892Z,23.18
2023-01-06T08:05:00.319Z,24.87
2023-01-06T08:10:04.901Z,24.34
2023-01-06T08:15:08.829Z,26.57
2023-01-06T08:20:13.784Z,22.81
2023-01-06T08:25:18.752Z,25.24
2023-01-06T08:30:23.488Z,24.58
2023-01-06T08:35:27.907Z,25.46
2023-01-06T08:40:31.774Z,26.66
2023-01-06T08:45:40.019Z,25.76
2023-01-06T08:50:44.477Z,26.00
2023-01-06T08:55:49.223Z,24.59
2023-01-06T09:00:54.668Z,26.06
2023-01-06T09:06:00.641Z,26.87
2023-01-06T09:11:09.742Z,25.07
2023-01-06T09:16:13.644Z,25.37
2023-01-06T09:21:24.019Z,26.28
2023-01-06T09:26:28.862Z,25.25
2023-01-06T09:31:33.243Z,26.09
2023-01-06T09:36:37.931Z,24.69
2023-01-06T09:42:18.241Z,25.88
2023-01-06T09:47:35.404Z,26.35
2023-01-06T09:52:53.594Z,26.87
2023-01-06T09:58:05.435Z,27.04
2023-01-06T10:03:19.607Z,25.94
2023-01-06T10:08:23.694Z,27.43
2023-01-06T10:14:03.223Z,27.28
2023-01-06T10:19:08.611Z,27.00
2023-01-06T10:24:30.982Z,27.66
2023-01-06T10:29:37.429Z,28.35
2023-01-06T10:34:49.824Z,28.23
2023-01-06T10:40:00.211Z,28.39
2023-01-06T10:45:05.686Z,28.51
2023-01-06T10:50:14.574Z,28.66
2023-01-06T10:55:33.611Z,28.70
2023-01-06T11:00:38.921Z,28.76
2023-01-06T11:05:44.009Z,28.28
2023-01-06T11:10:56.010Z,28.41
2023-01-06T11:16:04.645Z,29.00
2023-01-06T11:21:13.713Z,29.07
2023-01-06T11:26:20.395Z,28.97
2023-01-06T11:31:28.635Z,28.94
2023-01-06T11:36:35.880Z,28.97
2023-01-06T11:41:48.534Z,29.12
2023-01-06T11:47:00.758Z,29.05
2023-01-06T11:52:22.802Z,28.43
2023-01-06T11:57:37.437Z,28.93
2023-01-06T12:02:55.050Z,28.99
2023-01-06T12:08:02.455Z,28.81
2023-01-06T12:13:08.268Z,29.00
2023-01-06T12:18:27.909Z,29.69
2023-01-06T12:23:39.053Z,29.44
2023-01-06T12:28:50.622Z,30.00
2023-01-06T12:34:05.015Z,30.25
2023-01-06T12:39:21.546Z,29.56
2023-01-06T12:44:26.387Z,29.78
2023-01-06T12:49:32.197Z,30.02
2023-01-06T12:54:42.176Z,30.11
2023-01-06T13:00:12.023Z,30.40
2023-01-06T13:05:26.630Z,29.93
2023-01-06T13:10:56.626Z,29.84
2023-01-06T13:16:28.545Z,30.15
2023-01-06T13:21:37.892Z,30.35
2023-01-06T13:27:13.632Z,30.56
2023-01-06T13:33:01.313Z,30.35
2023-01-06T13:38:05.871Z,30.95
2023-01-06T13:43:35.378Z,31.24
2023-01-06T13:48:41.491Z,31.28
2023-01-06T13:53:47.771Z,31.10
2023-01-06T13:59:14.303Z,31.13
2023-01-06T14:04:18.328Z,31.16
2023-01-06T14:09:23.238Z,30.79
2023-01-06T14:14:30.479Z,30.38
2023-01-06T14:19:42.062Z,30.45
2023-01-06T14:24:56.712Z,30.57
2023-01-06T14:30:07.504Z,30.49
2023-01-06T14:35:17.553Z,30.10
2023-01-06T14:40:27.783Z,30.19
2023-01-06T14:45:40.773Z,30.70
2023-01-06T14:50:57.854Z,30.57
2023-01-06T14:56:07.544Z,30.70
2023-01-06T15:01:31.642Z,31.02
2023-01-06T15:06:36.778Z,31.16
2023-01-06T15:11:45.066Z,31.43
2023-01-06T15:16:50.093Z,31.39
2023-01-06T15:21:57.008Z,31.72
2023-01-06T15:27:13.023Z,31.28
2023-01-06T15:32:20.254Z,31.12
2023-01-06T15:37:28.818Z,31.74
2023-01-06T15:42:38.289Z,30.99
2023-01-06T15:47:52.634Z,30.93
2023-01-06T15:53:04.867Z,31.62
2023-01-06T15:58:36.885Z,31.61
2023-01-06T16:03:42.506Z,31.46
2023-01-06T16:08:49.772Z,32.36
2023-01-06T16:13:58.941Z,31.82
2023-01-06T16:19:19.735Z,31.83
2023-01-06T16:24:31.619Z,32.41
2023-01-06T16:29:40.749Z,31.45
2023-01-06T16:34:56.660Z,31.89
2023-01-06T16:40:06.103Z,32.10
2023-01-06T16:45:23.327Z,30.91
2023-01-06T16:50:37.356Z,31.27
2023-01-06T16:55:46.485Z,31.49
2023-01-06T17:00:53.926Z,31.98
2023-01-06T17:05:59.500Z,31.95
2023-01-06T17:11:14.586Z,32.57
2023-01-06T17:16:23.275Z,32.29
2023-01-06T17:21:36.841Z,32.95
2023-01-06T17:26:42.935Z,33.33
2023-01-06T17:31:51.158Z,33.11
2023-01-06T17:36:58.099Z,32.92
2023-01-06T17:42:15.166Z,31.87
2023-01-06T17:47:22.230Z,31.94
2023-01-06T17:52:43.548Z,31.47
2023-01-06T17:57:49.829Z,31.96
2023-01-06T18:03:03.437Z,31.81
2023-01-06T18:08:07.954Z,31.99
2023-01-06T18:13:15.871Z,32.44
2023-01-06T18:18:41.465Z,32.34
2023-01-06T18:23:52.465Z,33.74
2023-01-06T18:29:24.602Z,32.53
2023-01-06T18:34:41.331Z,33.13
2023-01-06T18:39:52.714Z,34.30
2023-01-06T18:45:04.622Z,34.60
2023-01-06T18:50:42.883Z,32.92
2023-01-06T18:55:53.263Z,33.84
2023-01-06T19:01:03.148Z,33.67
2023-01-06T19:06:11.208Z,33.61
2023-01-06T19:11:20.141Z,32.81
2023-01-06T19:16:29.009Z,33.05
2023-01-06T19:21:36.695Z,34.31
2023-01-06T19:26:43.589Z,33.33
2023-01-06T19:31:59.690Z,33.96
2023-01-06T19:37:11.863Z,34.71
2023-01-06T19:42:31.142Z,33.83
2023-01-06T19:47:43.253Z,34.41
2023-01-06T19:52:47.798Z,33.66
2023-01-06T19:57:54.312Z,34.77
2023-01-06T20:03:05.371Z,33.56
2023-01-06T20:08:10.166Z,33.37
2023-01-06T20:13:15.038Z,34.61
2023-01-06T20:18:20.341Z,33.96
2023-01-06T20:23:26.322Z,34.07
2023-01-06T20:28:31.408Z,34.86
2023-01-06T20:33:37.169Z,35.49
2023-01-06T20:38:42.236Z,34.51
2023-01-06T20:43:47.362Z,34.81
2023-01-06T20:48:52.510Z,35.10
2023-01-06T20:53:57.623Z,34.45
2023-01-06T20:59:02.825Z,34.74
2023-01-06T21:04:08.179Z,34.94
2023-01-06T21:09:13.469Z,35.11
2023-01-06T21:14:18.664Z,35.07
2023-01-06T21:19:23.889Z,34.92
2023-01-06T21:24:29.325Z,35.24
2023-01-06T21:29:34.413Z,34.76
2023-01-06T21:34:39.721Z,35.00
2023-01-06T21:39:46.633Z,34.40
2023-01-06T21:44:52.673Z,35.60
2023-01-06T21:49:57.538Z,35.29
2023-01-06T21:55:02.760Z,35.03
2023-01-06T22:00:12.569Z,35.24
2023-01-06T22:05:17.173Z,35.50
2023-01-06T22:10:24.834Z,35.93
2023-01-06T22:15:30.328Z,36.06
2023-01-06T22:20:35.358Z,36.42
2023-01-06T22:25:40.673Z,36.28
2023-01-06T22:30:45.447Z,35.71
2023-01-06T22:35:50.101Z,35.34
2023-01-06T22:40:54.690Z,35.50
2023-01-06T22:45:59.596Z,35.78
2023-01-06T22:51:07.064Z,35.17
2023-01-06T22:56:13.342Z,35.11
2023-01-06T23:01:19.765Z,35.70
2023-01-06T23:06:24.479Z,36.50
2023-01-06T23:11:29.756Z,35.72
2023-01-06T23:16:36.597Z,36.59
2023-01-06T23:21:43.217Z,37.04
2023-01-06T23:26:48.219Z,36.65
2023-01-06T23:31:52.804Z,36.74
2023-01-06T23:36:57.636Z,37.23
2023-01-06T23:42:02.211Z,36.15
2023-01-06T23:47:08.232Z,36.25
2023-01-06T23:52:14.520Z,36.71
2023-01-06T23:57:20.139Z,36.01
